METAR Data
IDs: Format: Raw Decoded Include TAF

Data at: 1527 UTC 18 Aug 2019

PAEN 181453Z 03008KT 10SM CLR 12/02 A3013 RMK AO2 SLP203 T01170022 56006
PAEN 181353Z 02010KT 10SM CLR 13/02 A3013 RMK AO2 SLP204 T01280022
PAEN 181253Z AUTO 01016KT 10SM CLR 14/02 A3014 RMK AO2 PK WND 03026/1224 SLP207 T01390022 TSNO
PAEN 181153Z AUTO 02015G24KT 10SM CLR 14/02 A3014 RMK AO2 SLP209 T01390022 10183 20133 50000 TSNO
PAEN 181053Z AUTO 35009KT 10SM CLR 14/03 A3015 RMK AO2 SLP212 T01390033 TSNO
PAEN 180953Z AUTO 01015G21KT 10SM CLR 15/02 A3015 RMK AO2 PK WND 36027/0907 SLP210 T01500022 TSNO
PAEN 180853Z AUTO 01017G25KT 10SM CLR 16/02 A3014 RMK AO2 PK WND 36027/0809 SLP209 T01610017 402280106 58002 TSNO
PAEN 180753Z AUTO 36017G24KT 10SM CLR 17/02 A3015 RMK AO2 SLP210 T01720017 TSNO
PAEN 180653Z AUTO 01020G27KT 10SM CLR 18/02 A3015 RMK AO2 PK WND 02027/0652 SLP211 T01780017 TSNO
PAEN 180553Z AUTO 01015KT 10SM CLR 18/03 A3015 RMK AO2 SLP211 T01830028 10228 20183 57004 TSNO
PAEN 180453Z 01015KT 10SM CLR 20/02 A3016 RMK AO2 PK WND 01032/0417 SLP213 T02000022
PAEN 180353Z 01017G29KT 10SM CLR 21/02 A3016 RMK AO2 PK WND 01029/0337 SLP213 T02110017
PAEN 180253Z 01021G29KT 10SM CLR 22/01 A3016 RMK AO2 PK WND 36032/0234 SLP215 T02220011 57008
PAEN 180153Z 02019G32KT 10SM CLR 23/02 A3017 RMK AO2 PK WND 36032/0144 SLP217 T02280022
PAEN 180053Z 01021G29KT 10SM CLR 22/03 A3018 RMK AO2 PK WND 02031/2356 SLP220 T02220033
PAEN 172353Z 36026G31KT 10SM CLR 22/03 A3019 RMK AO2 PK WND 01031/2313 SLP223 T02220028 10222 20178 56013
PAEN 172253Z 02024G30KT 10SM CLR 22/03 A3019 RMK AO2 PK WND 36033/2226 SLP225 T02220033
PAEN 172153Z 01024G34KT 10SM CLR 21/03 A3021 RMK AO2 PK WND 01034/2144 SLP230 T02110033
PAEN 172053Z 02022G31KT 10SM CLR 20/03 A3022 RMK AO2 PK WND 01034/2012 SLP235 T02000033 51007
PAEN 171953Z 36020G31KT 10SM CLR 19/03 A3022 RMK AO2 PK WND 36036/1855 SLP234 T01890028
PAEN 171853Z 36024G30KT 10SM CLR 18/02 A3021 RMK AO2 PK WND 01036/1826 SLP232 T01830022
PAEN 171753Z 01026G32KT 10SM CLR 18/02 A3020 RMK AO2 PK WND 35035/1722 SLP228 T01780017 10178 20106 51013
PAEN 171653Z 36022G36KT 10SM CLR 18/01 A3019 RMK AO2 PK WND 01036/1651 SLP224 T01780011
PAEN 171553Z 01017G24KT 10SM CLR 17/02 A3018 RMK AO2 PK WND 36026/1539 SLP222 T01670017
PAEN 171453Z 36014G21KT 10SM CLR 16/02 A3016 RMK AO2 PK WND 01028/1356 SLP215 T01610017 53021
PAEN 171353Z 01022G30KT 10SM CLR 17/01 A3014 RMK AO2 PK WND 02031/1330 SLP206 T01720006
PAEN 171253Z AUTO 01019G25KT 10SM CLR 17/02 A3012 RMK AO2 SLP200 T01670022 TSNO
PAEN 171153Z AUTO 08005KT 10SM CLR 12/09 A3010 RMK AO2 SLP194 T01170094 10178 20117 51015 TSNO
PAEN 171053Z AUTO 36004KT 10SM CLR 12/10 A3010 RMK AO2 SLP192 T01220100 TSNO
PAEN 170953Z AUTO 00000KT 10SM CLR 13/11 A3007 RMK AO2 SLP183 T01330106 TSNO
PAEN 170853Z AUTO 05004KT 10SM CLR 14/11 A3005 RMK AO2 SLP178 T01390106 402330078 58006 TSNO
PAEN 170753Z AUTO 36007KT 10SM CLR 14/11 A3007 RMK AO2 SLP182 T01440111 TSNO
PAEN 170653Z AUTO 26003KT 10SM CLR 17/11 A3006 RMK AO2 SLP182 T01670111 TSNO
PAEN 170553Z 21010KT 10SM CLR 18/11 A3007 RMK AO2 SLP185 T01780111 10228 20178 58004
PAEN 170453Z 21011KT 10SM CLR 19/11 A3008 RMK AO2 SLP188 T01940111
PAEN 170353Z 20011KT 10SM CLR 20/11 A3008 RMK AO2 SLP188 T02000111